createdAt,value
2023-02-05T00:00:45.091Z,-1.09
2023-02-05T00:22:32.036Z,-0.98
2023-02-05T00:44:17.865Z,-1.03
2023-02-05T01:06:03.461Z,-1.24
2023-02-05T01:27:49.378Z,-1.35
2023-02-05T01:49:40.518Z,-1.12
2023-02-05T02:11:29.245Z,-1.14
2023-02-05T02:33:22.331Z,-1.38
2023-02-05T02:55:12.331Z,-1.44
2023-02-05T03:17:00.391Z,-1.76
2023-02-05T03:38:59.303Z,-1.87
2023-02-05T04:00:47.628Z,-1.97
2023-02-05T04:22:34.758Z,-1.97
2023-02-05T04:44:20.738Z,-2.02
2023-02-05T05:06:08.264Z,-2.12
2023-02-05T05:27:54.462Z,-2.23
2023-02-05T05:49:40.801Z,-2.37
2023-02-05T06:11:26.603Z,-2.53
2023-02-05T06:33:13.050Z,-2.83
2023-02-05T06:54:58.852Z,-2.89
2023-02-05T07:16:44.598Z,-2.78
2023-02-05T07:38:30.345Z,-2.73
2023-02-05T08:00:15.318Z,-0.81
2023-02-05T08:22:01.393Z,7.25
2023-02-05T08:43:49.628Z,3.35
2023-02-05T09:05:36.015Z,0.96
2023-02-05T09:27:22.465Z,0.84
2023-02-05T09:49:15.661Z,1.42
2023-02-05T10:11:02.966Z,9.99
2023-02-05T10:32:59.697Z,7.62
2023-02-05T10:54:47.099Z,3.56
2023-02-05T11:16:42.229Z,2.33
2023-02-05T11:38:47.165Z,1.98
2023-02-05T12:00:34.762Z,2.16
2023-02-05T12:22:35.294Z,2.26
2023-02-05T12:44:36.291Z,2.52
2023-02-05T13:06:27.356Z,2.51
2023-02-05T13:28:44.050Z,2.47
2023-02-05T13:51:08.716Z,2.40
2023-02-05T14:12:57.316Z,2.03
2023-02-05T14:34:58.941Z,1.72
2023-02-05T14:56:48.236Z,1.43
2023-02-05T15:18:40.624Z,1.41
2023-02-05T15:40:34.318Z,1.21
2023-02-05T16:02:23.474Z,0.79
2023-02-05T16:24:23.365Z,-0.02
2023-02-05T16:46:28.631Z,-0.77
2023-02-05T17:08:13.568Z,-1.28
2023-02-05T17:30:01.128Z,-1.41
2023-02-05T17:51:47.453Z,-1.40
2023-02-05T18:13:36.546Z,-1.71
2023-02-05T18:35:22.490Z,-2.06
2023-02-05T18:57:08.352Z,-2.17
2023-02-05T19:18:57.987Z,-1.98
2023-02-05T19:40:46.368Z,-1.99
2023-02-05T20:02:35.598Z,-1.90
2023-02-05T20:24:22.253Z,-1.56
2023-02-05T20:46:09.060Z,-1.69
2023-02-05T21:07:56.325Z,-1.91
2023-02-05T21:29:43.623Z,-1.72
2023-02-05T21:51:34.267Z,-1.43
2023-02-05T22:13:20.441Z,-1.33
2023-02-05T22:35:06.563Z,-1.04
2023-02-05T22:56:52.453Z,-1.05
2023-02-05T23:18:39.735Z,-1.61
2023-02-05T23:40:25.587Z,-2.09
